Airfield :
LOGIN :

Register | Disclaimer

   EN    FR    IT 

 










Legend :    VFR   Marginal VFR   IFR   Intensive IFR   Very Intensive IFR
Visi :
Ceiling :
>= 8 km
>= 3000ft
5 to 8 km
1000 to 3000 ft
1500m to 5 km
500 to 1000 ft
800 to 1500m
200 to 500 ft
< 800m
< 200 ft
Symbols :   Thunderstorms  Fog  Heavy snow  Heavy precipitations  Wind > 20 kt
SIGMETs :     Misc.  Thunderstorms  Icing  Turbulence  Mountain Waves  Volcanic Ashes






- Airport Elevation : 245 ft
- IATA code : BIQ


LFBZ - Biarritz

CURRENT METAR :
  • 030630Z AUTO 20002KT 9999 FEW001 BKN220 17/15 Q1018 NOSIG

EXPIRED METARs :
  • 030600Z AUTO 18003KT 9999 OVC030 17/15 Q1018 NOSIG
  • 030530Z AUTO 21003KT 9999 BKN029 BKN100 16/14 Q1018 NOSIG
  • 030500Z AUTO 17002KT 9999 FEW029 BKN230 16/14 Q1017 NOSIG
  • 030430Z AUTO 18003KT 9999 BKN029 16/14 Q1017 NOSIG
  • 030400Z AUTO 20003KT 9999 OVC029 16/14 Q1017 NOSIG

TAF TAF LFBZ
Valid from the 03 at 06:00 until the 04 at 06:00 UTC


030500Z 0306/0406 VRB03KT 9999 BKN020
BECMG 0310/0312 31010KT
BECMG 0316/0318 VRB03KT
TEMPO 0318/0406 -RA
PROB40
TEMPO 0403/0406 2000 RA BKN005



MET'MAP, your aeronautical weather chart ! - Copyright ORBIFLY December 2007 - Disclaimer

ORBIFLY MET'MAP TEAM :

Programming & Development : Alexandra Zaïnal
Concept & original design : Baudouin d'Aumeries
Assistance for programming : Marc-Olivier Méhu
Technical & hardware support : Manuel Goepfert

Contact : metmap@orbifly.com




SOURCES & CREDITS :

   NOAA